首页
METAR-TAF:

METAR-TAF

机场 :

聖迪濟耶, 法国

纬度: 48-38N, 经度: 004-54E, 海拔: 139米

当前天气观测

该预报发布于46分钟前的16:00 UTC
风速14节,风向西
温度 14°C
湿度 82%
气压 1000 hPa
能見度: 5000
小雨, 轻雾

METAR: LFSI 051600Z AUTO 26014KT 5000 -RA BR FEW014/// BKN024/// BKN058/// ///TCU 14/11 Q1000

时间: 18:46 (16:46 UTC)

预报

该预报发布于2小时和46分钟前的14:00 UTC
预报有效从05日的 15点(UTC)到 06日的 15点(UTC)
风速10节,风向西转西南
能见度10公里或以上
多云层高于2000英尺
多云层高于3000英尺
短暂存在
从 05日的 15点(UTC)到 05日的 21点(UTC)
风速15节,风向西转西南,有时为25节阵风
能見度: 4000
散云层高于1000英尺
多云层高于2000英尺, 塔状积云.
小阵雨
短暂存在
从 06日的 02点(UTC)到 06日的 05点(UTC)
多云层高于800英尺
短暂存在
从 06日的 12点(UTC)到 06日的 15点(UTC)
风速15节,风向西南,有时为25节阵风
散云层高于2000英尺, 塔状积云.

TAF: LFSI 051400Z 0515/0615 25010KT 9999 BKN020 BKN030 TEMPO 0515/0521 25015G25KT 4000 -SHRA SCT010 BKN020TCU TEMPO 0602/0605 BKN008 TEMPO 0612/0615 22015G25KT SCT020TCU

超过4000个机场的气象观测和天气预报(METAR&TAF报告)。

可查询的气象台以黄色和红色小点在地图上表示。

将鼠标移到小点上方,可查看气象台名称。

然后点击查看天气观测和预报。

如需切换地图:点击带黑十字的绿色按钮放大地图;点击带横线的绿色按钮缩小地图;或者点击绿色箭头查看邻近地区的地图。


METAR-TAF: